Latest Weather Observations for Frederick Reef

IDQ60801

Issued at 6:02 pm EST Sunday 2 August 2015 (issued every 30 minutes, with the page automatically refreshed every 10 minutes)

About weather observations | Map of weather stations | Latest weather observations for QLD | Other Formats
Station Details ID: 200701 Name: FREDERICK REEF Lat: -20.94 Lon: 154.40 Height: 4.9 m
Data from the previous 72 hours. | See also: Recent months for locations in Queensland
Date/Time
EST
Temp
°C
App
Temp
°C
Dew
Point
Rel
Hum
%
Delta-T
°C
Wind Press
QNH
hPa
Press
MSL
hPa
Rain
since 9 am
mm
Dir
 
Spd
km/h
Gust
km/h
Spd
kts
Gust
kts
02/06:00pm 22.4 - - - - E 28 33 15 18 1019.5 - -
02/05:30pm 22.5 - - - - E 30 33 16 18 1019.2 - -
02/05:00pm 22.7 - - - - ESE 28 32 15 17 1019.1 1019.1 -
02/04:30pm 22.7 - - - - E 28 33 15 18 1018.9 - -
02/04:00pm 22.8 - - - - E 32 35 17 19 1018.7 1018.7 -
02/03:30pm 22.6 - - - - E 32 35 17 19 1018.5 - -
02/03:00pm 22.5 - - - - E 33 35 18 19 1018.5 1018.5 -
02/02:30pm 22.5 - - - - E 33 37 18 20 1018.4 - -
02/02:00pm 22.3 - - - - E 35 39 19 21 1018.4 1018.5 -
02/01:30pm 22.6 - - - - E 35 39 19 21 1018.7 - -
02/01:00pm 22.2 - - - - E 39 43 21 23 1019.0 1018.9 -
02/12:54pm 22.3 - - - - E 37 41 20 22 1019.2 - -
02/12:30pm 21.5 - - - - E 17 20 9 11 1019.7 - -
02/12:00pm 21.3 - - - - ENE 20 32 11 17 1020.1 1020.0 -
02/11:30am 21.8 - - - - ENE 37 43 20 23 1020.2 - -
02/11:28am 21.6 - - - - ENE 37 43 20 23 1020.2 - -
02/11:00am 20.6 - - - - E 41 48 22 26 1020.7 1020.6 -
02/10:49am 21.2 - - - - E 37 46 20 25 1020.7 - -
02/10:30am 20.7 - - - - ESE 35 41 19 22 1021.1 - -
02/10:12am 21.8 - - - - ESE 32 56 17 30 1021.1 - -
02/10:00am 22.1 - - - - ESE 32 35 17 19 1021.3 1021.3 -
02/09:30am 22.3 - - - - E 37 41 20 22 1021.1 - -
02/09:00am 22.6 - - - - ESE 33 37 18 20 1021.1 1021.2 -
02/08:30am 22.9 - - - - E 37 43 20 23 1021.0 - -
02/08:00am 22.4 - - - - E 32 37 17 20 1020.8 1020.9 -
02/07:30am 22.5 - - - - ESE 37 41 20 22 1020.5 - -
02/07:00am 22.3 - - - - E 37 43 20 23 1020.4 1020.4 -
02/06:30am 22.2 - - - - E 37 43 20 23 1020.1 - -
02/06:00am 22.2 - - - - E 37 41 20 22 1020.0 1020.0 -
02/05:30am 21.2 - - - - E 30 48 16 26 1019.9 - -
02/05:05am 21.7 - - - - E 50 56 27 30 1019.5 - -
02/05:00am 21.7 - - - - E 50 43 27 23 1019.6 1019.5 -
02/04:30am 22.1 - - - - ESE 30 35 16 19 1019.7 - -
02/04:00am 22.3 - - - - SE 33 39 18 21 1019.5 1019.5 -
02/03:42am 22.4 - - - - ESE 41 59 22 32 1019.7 - -
02/03:30am 22.4 - - - - E 37 46 20 25 1019.6 - -
02/03:00am 22.3 - - - - ESE 37 46 20 25 1019.7 1019.7 -
02/02:30am 22.2 - - - - ESE 37 44 20 24 1019.9 - -
02/02:00am 22.2 - - - - ESE 37 46 20 25 1019.8 1019.8 -
02/01:30am 22.3 - - - - ESE 33 37 18 20 1020.0 - -
02/01:00am 22.3 - - - - ESE 37 43 20 23 1020.3 1020.2 -
02/12:30am 22.5 - - - - E 39 46 21 25 1020.4 - -
02/12:00am 22.4 - - - - ESE 41 46 22 25 1020.5 1020.6 -
 
Date/Time
EST
Temp
°C
App
Temp
°C
Dew
Point
Rel
Hum
%
Delta-T
°C
Wind Press
QNH
hPa
Press
MSL
hPa
Rain
since 9 am
mm
Dir
 
Spd
km/h
Gust
km/h
Spd
kts
Gust
kts
01/11:30pm 22.5 - - - - ESE 39 43 21 23 1020.4 - -
01/11:00pm 22.5 - - - - E 43 44 23 24 1020.3 1020.3 -
01/10:30pm 22.5 - - - - ESE 39 43 21 23 1020.4 - -
01/10:00pm 22.5 - - - - ESE 37 44 20 24 1020.5 1020.5 -
01/09:30pm 22.4 - - - - ESE 39 46 21 25 1020.4 - -
01/09:00pm 22.3 - - - - ESE 39 46 21 25 1020.4 1020.4 -
01/08:30pm 22.2 - - - - ESE 44 50 24 27 1020.1 - -
01/08:00pm 22.4 - - - - SE 39 43 21 23 1020.1 1020.2 -
01/07:30pm 22.2 - - - - SE 39 44 21 24 1019.8 - -
01/07:00pm 22.1 - - - - SE 39 46 21 25 1019.7 1019.7 -
01/06:30pm 22.3 - - - - SE 39 44 21 24 1019.3 - -
01/06:00pm 22.4 - - - - ESE 35 39 19 21 1019.2 1019.2 -
01/05:30pm 22.4 - - - - SE 33 37 18 20 1019.0 - -
01/05:00pm 22.4 - - - - ESE 33 39 18 21 1018.9 1019.0 -
01/04:30pm 22.4 - - - - SE 32 35 17 19 1018.8 - -
01/04:00pm 22.3 - - - - ESE 30 33 16 18 1018.7 1018.7 -
01/03:30pm 22.3 - - - - ESE 28 32 15 17 1018.6 - -
01/03:00pm 22.6 - - - - ESE 28 37 15 20 1018.3 1018.4 -
01/02:30pm 22.2 - - - - E 32 35 17 19 1018.3 - -
01/02:00pm 22.2 - - - - ESE 32 37 17 20 1018.5 1018.5 -
01/01:30pm 22.2 - - - - ESE 32 35 17 19 1018.9 - -
01/01:00pm 22.4 - - - - ESE 33 39 18 21 1019.0 1019.0 -
01/12:30pm 22.2 - - - - SE 33 39 18 21 1019.3 - -
01/12:00pm 22.1 - - - - SE 33 39 18 21 1019.7 1019.6 -
01/11:30am 22.1 - - - - SE 32 35 17 19 1020.2 - -
01/11:00am 22.3 - - - - ESE 32 35 17 19 1020.6 1020.5 -
01/10:30am 22.2 - - - - ESE 33 37 18 20 1020.9 - -
01/10:00am 22.2 - - - - ESE 32 37 17 20 1021.1 1021.1 -
01/09:30am 22.0 - - - - ESE 33 41 18 22 1021.1 - -
01/09:00am 22.2 - - - - SE 35 41 19 22 1021.2 1021.2 -
01/08:30am 22.1 - - - - ESE 35 41 19 22 1021.0 - -
01/08:00am 21.9 - - - - ESE 33 39 18 21 1020.9 1020.9 -
01/07:30am 22.0 - - - - ESE 35 39 19 21 1020.8 - -
01/07:00am 21.9 - - - - ESE 37 43 20 23 1020.4 1020.5 -
01/06:30am 21.9 - - - - ESE 32 39 17 21 1020.0 - -
01/06:00am 21.9 - - - - ESE 37 41 20 22 1019.7 1019.7 -
01/05:30am 21.7 - - - - ESE 35 41 19 22 1019.3 - -
01/05:00am 21.7 - - - - ESE 41 46 22 25 1018.9 1018.9 -
01/04:30am 21.8 - - - - ESE 37 44 20 24 1018.8 - -
01/04:00am 21.7 - - - - ESE 35 43 19 23 1018.8 1018.8 -
01/03:30am 21.9 - - - - ESE 39 44 21 24 1018.8 - -
01/03:00am 22.0 - - - - ESE 41 46 22 25 1018.7 1018.8 -
01/02:30am 22.0 - - - - ESE 41 46 22 25 1018.8 - -
01/02:00am 21.6 - - - - ESE 39 46 21 25 1019.0 1019.0 -
01/01:30am 22.0 - - - - SE 41 46 22 25 1019.3 - -
01/01:00am 21.6 - - - - SE 43 48 23 26 1019.6 1019.5 -
01/12:30am 21.8 - - - - ESE 41 46 22 25 1020.0 - -
01/12:00am 21.8 - - - - SE 41 46 22 25 1020.1 1020.1 -
 
Date/Time
EST
Temp
°C
App
Temp
°C
Dew
Point
Rel
Hum
%
Delta-T
°C
Wind Press
QNH
hPa
Press
MSL
hPa
Rain
since 9 am
mm
Dir
 
Spd
km/h
Gust
km/h
Spd
kts
Gust
kts
31/11:30pm 21.9 - - - - SE 43 48 23 26 1020.2 - -
31/11:00pm 22.1 - - - - SE 33 39 18 21 1020.4 - -
31/10:30pm 21.8 - - - - ESE 39 43 21 23 1020.4 - -
31/10:00pm 21.9 - - - - ESE 39 44 21 24 1020.3 1020.3 -
31/09:30pm 22.0 - - - - ESE 44 50 24 27 1020.3 - -
31/09:00pm 21.9 - - - - SE 44 50 24 27 1020.2 1020.2 -
31/08:30pm 22.0 - - - - SE 43 50 23 27 1020.0 - -
31/08:00pm 22.1 - - - - ESE 39 50 21 27 1019.8 1019.8 -
31/07:30pm 21.7 - - - - SE 43 48 23 26 1019.6 - -
31/07:00pm 21.8 - - - - SE 44 50 24 27 1019.0 1019.1 -
31/06:30pm 21.6 - - - - SSE 46 52 25 28 1018.5 - -
31/06:00pm 21.8 - - - - SSE 43 50 23 27 1018.4 1018.4 -
31/05:30pm 21.8 - - - - SSE 46 52 25 28 1018.2 - -
31/05:00pm 21.7 - - - - SE 44 50 24 27 1018.0 1018.0 -
31/04:30pm 21.5 - - - - SE 44 50 24 27 1017.9 - -
31/04:00pm 21.4 - - - - SSE 43 50 23 27 1017.9 1017.9 -
31/03:30pm 21.6 - - - - SSE 43 48 23 26 1017.9 - -
31/03:00pm 21.6 - - - - SSE 41 46 22 25 1017.9 1018.0 -
31/02:30pm 21.6 - - - - SSE 41 46 22 25 1018.2 - -
31/02:00pm 21.7 - - - - SSE 39 43 21 23 1018.4 1018.4 -
31/01:30pm 21.9 - - - - SE 35 41 19 22 1018.6 - -
31/01:00pm 21.8 - - - - SE 35 43 19 23 1019.0 1019.0 -
31/12:30pm 21.8 - - - - SE 35 39 19 21 1019.3 - -
31/12:00pm 21.7 - - - - SE 35 39 19 21 1019.7 1019.6 -
31/11:30am 21.9 - - - - SSE 37 43 20 23 1020.1 - -
31/11:00am 21.7 - - - - SE 35 41 19 22 1020.5 1020.5 -
31/10:30am 21.5 - - - - SE 35 41 19 22 1021.1 - -
31/10:00am 21.3 - - - - SSE 39 43 21 23 1021.3 1021.2 -
31/09:30am 21.7 - - - - SE 32 39 17 21 1021.7 - -
31/09:00am 21.7 - - - - SE 30 35 16 19 1021.6 1021.6 -
31/08:30am 21.8 - - - - SE 32 37 17 20 1021.4 - -
31/08:00am 21.7 - - - - SE 32 39 17 21 1021.2 1021.3 -
31/07:30am 21.4 - - - - SE 32 35 17 19 1021.0 - -
31/07:00am 21.7 - - - - SE 33 41 18 22 1020.8 1020.8 -
31/06:30am 21.5 - - - - SE 39 44 21 24 1020.3 - -
31/06:00am 21.4 - - - - SE 41 46 22 25 1019.9 1020.0 -
31/05:30am 21.3 - - - - SE 35 48 19 26 1019.7 - -
31/05:00am 21.3 - - - - SE 33 39 18 21 1019.6 1019.6 -
31/04:30am 21.3 - - - - SE 33 39 18 21 1019.6 - -
31/04:00am 21.3 - - - - SE 39 46 21 25 1019.6 1019.5 -
31/03:30am 21.2 - - - - SE 39 44 21 24 1019.6 - -
31/03:00am 21.3 - - - - SE 41 48 22 26 1019.7 1019.7 -
31/02:30am 21.3 - - - - SE 41 46 22 25 1019.7 - -
31/02:00am 21.4 - - - - SE 41 50 22 27 1019.8 1019.8 -
31/01:30am 21.3 - - - - ESE 43 52 23 28 1019.9 - -
31/01:00am 21.3 - - - - ESE 44 54 24 29 1020.4 1020.3 -
31/12:30am 21.5 - - - - ESE 44 54 24 29 1020.6 - -
31/12:00am 21.7 - - - - ESE 46 54 25 29 1020.8 1020.8 -
 
Date/Time
EST
Temp
°C
App
Temp
°C
Dew
Point
Rel
Hum
%
Delta-T
°C
Wind Press
QNH
hPa
Press
MSL
hPa
Rain
since 9 am
mm
Dir
 
Spd
km/h
Gust
km/h
Spd
kts
Gust
kts
30/11:30pm 21.7 - - - - ESE 46 56 25 30 1021.3 - -
30/11:00pm 21.6 - - - - ESE 43 50 23 27 1021.4 1021.4 -
30/10:30pm 21.7 - - - - ESE 46 56 25 30 1021.5 - -
30/10:00pm 21.8 - - - - ESE 46 50 25 27 1021.6 1021.6 -
30/09:30pm 21.6 - - - - ESE 46 50 25 27 1021.5 - -
30/09:00pm 21.8 - - - - ESE 46 54 25 29 1021.1 1021.2 -
30/08:30pm 21.9 - - - - ESE 46 54 25 29 1020.9 - -
30/08:00pm 21.9 - - - - SE 44 54 24 29 1020.7 1020.7 -
30/07:30pm 21.9 - - - - ESE 44 52 24 28 1020.5 - -
30/07:00pm 21.8 - - - - SE 46 54 25 29 1020.3 1020.4 -
30/06:30pm 21.6 - - - - ESE 44 52 24 28 1019.9 - -

Other Formats:

Comma delimited format used in spreadsheet applications
http://www.bom.gov.au/fwo/IDQ60801/IDQ60801.94393.axf

JavaScript Object Notation format (JSON) in row-major order
http://www.bom.gov.au/fwo/IDQ60801/IDQ60801.94393.json